createdAt,value
2023-02-13T00:00:10.429Z,18.13
2023-02-13T00:02:37.016Z,18.57
2023-02-13T00:05:03.628Z,20.30
2023-02-13T00:07:30.236Z,17.57
2023-02-13T00:09:56.872Z,57.10
2023-02-13T00:12:23.474Z,19.40
2023-02-13T00:14:50.073Z,16.00
2023-02-13T00:17:16.676Z,13.17
2023-02-13T00:19:43.316Z,15.57
2023-02-13T00:22:10.146Z,15.00
2023-02-13T00:24:36.786Z,16.87
2023-02-13T00:27:03.488Z,16.00
2023-02-13T00:29:30.103Z,15.27
2023-02-13T00:31:56.739Z,14.33
2023-02-13T00:34:23.448Z,14.23
2023-02-13T00:36:49.981Z,14.30
2023-02-13T00:39:16.562Z,14.00
2023-02-13T00:41:43.198Z,13.53
2023-02-13T00:44:10.760Z,15.20
2023-02-13T00:46:38.824Z,13.00
2023-02-13T00:49:06.188Z,13.10
2023-02-13T00:51:32.825Z,12.87
2023-02-13T00:53:59.475Z,15.27
2023-02-13T00:56:26.152Z,12.53
2023-02-13T00:58:52.935Z,12.00
2023-02-13T01:01:19.817Z,14.53
2023-02-13T01:03:54.565Z,11.60
2023-02-13T01:06:21.217Z,13.23
2023-02-13T01:08:47.834Z,11.53
2023-02-13T01:11:14.508Z,12.40
2023-02-13T01:13:41.259Z,11.40
2023-02-13T01:16:07.881Z,12.27
2023-02-13T01:18:34.516Z,11.73
2023-02-13T01:21:04.336Z,10.00
2023-02-13T01:23:36.495Z,10.50
2023-02-13T01:26:08.170Z,10.73
2023-02-13T01:28:35.229Z,10.23
2023-02-13T01:31:02.316Z,11.63
2023-02-13T01:33:29.885Z,11.90
2023-02-13T01:35:56.639Z,10.53
2023-02-13T01:38:23.229Z,10.80
2023-02-13T01:40:54.196Z,9.53
2023-02-13T01:43:23.598Z,8.20
2023-02-13T01:45:53.772Z,9.20
2023-02-13T01:48:23.712Z,8.70
2023-02-13T01:50:53.162Z,9.00
2023-02-13T01:53:30.434Z,10.17
2023-02-13T01:56:02.197Z,9.50
2023-02-13T01:58:31.817Z,10.47
2023-02-13T02:00:59.629Z,9.83
2023-02-13T02:03:37.073Z,9.77
2023-02-13T02:06:04.801Z,9.13
2023-02-13T02:08:31.761Z,11.87
2023-02-13T02:11:01.983Z,20.30
2023-02-13T02:13:28.624Z,14.53
2023-02-13T02:15:55.294Z,14.83
2023-02-13T02:18:24.034Z,13.63
2023-02-13T02:21:09.079Z,12.60
2023-02-13T02:24:03.563Z,11.10
2023-02-13T02:26:41.930Z,12.50
2023-02-13T02:29:25.749Z,11.27
2023-02-13T02:32:12.067Z,10.97
2023-02-13T02:35:10.559Z,10.60
2023-02-13T02:38:10.987Z,11.33
2023-02-13T02:40:43.568Z,11.00
2023-02-13T02:43:19.207Z,10.37
2023-02-13T02:46:05.464Z,10.17
2023-02-13T02:48:51.031Z,9.10
2023-02-13T02:51:29.778Z,8.60
2023-02-13T02:54:23.992Z,10.03
2023-02-13T02:56:51.756Z,9.90
2023-02-13T02:59:59.242Z,9.17
2023-02-13T03:02:45.309Z,9.73
2023-02-13T03:05:40.581Z,9.83
2023-02-13T03:08:07.353Z,10.23
2023-02-13T03:10:53.929Z,10.90
2023-02-13T03:13:40.020Z,13.53
2023-02-13T03:16:25.604Z,13.10
2023-02-13T03:19:14.847Z,14.57
2023-02-13T03:22:10.486Z,13.60
2023-02-13T03:24:55.276Z,14.70
2023-02-13T03:27:46.514Z,13.20
2023-02-13T03:30:42.019Z,13.27
2023-02-13T03:33:34.673Z,13.77
2023-02-13T03:36:24.960Z,12.20
2023-02-13T03:39:08.358Z,12.73
2023-02-13T03:41:46.083Z,13.43
2023-02-13T03:44:41.888Z,13.77
2023-02-13T03:47:09.561Z,12.43
2023-02-13T03:50:09.348Z,13.47
2023-02-13T03:52:50.555Z,12.27
2023-02-13T03:55:44.878Z,12.43
2023-02-13T03:58:58.846Z,12.57
2023-02-13T04:01:28.401Z,10.80
2023-02-13T04:04:13.376Z,12.90
2023-02-13T04:06:50.112Z,13.20
2023-02-13T04:09:17.215Z,12.43
2023-02-13T04:11:50.204Z,11.27
2023-02-13T04:14:21.993Z,12.20
2023-02-13T04:16:52.527Z,12.03
2023-02-13T04:19:20.037Z,11.80
2023-02-13T04:21:50.680Z,12.87
2023-02-13T04:24:17.242Z,13.00
2023-02-13T04:26:44.053Z,13.13
2023-02-13T04:29:10.694Z,13.43
2023-02-13T04:31:37.657Z,15.30
2023-02-13T04:34:04.323Z,16.23
2023-02-13T04:36:30.969Z,15.70
2023-02-13T04:38:57.574Z,16.87
2023-02-13T04:41:24.231Z,16.70
2023-02-13T04:43:52.568Z,15.33
2023-02-13T04:46:19.367Z,15.57
2023-02-13T04:48:45.969Z,18.70
2023-02-13T04:51:12.632Z,24.90
2023-02-13T04:53:39.164Z,27.80
2023-02-13T04:56:06.290Z,32.87
2023-02-13T04:58:32.969Z,21.70
2023-02-13T05:00:59.918Z,20.80
2023-02-13T05:03:26.664Z,26.33
2023-02-13T05:05:53.242Z,23.90
2023-02-13T05:08:19.939Z,21.30
2023-02-13T05:10:46.524Z,22.60
2023-02-13T05:13:14.108Z,22.17
2023-02-13T05:15:40.693Z,23.13
2023-02-13T05:18:07.279Z,22.93
2023-02-13T05:20:33.950Z,16.13
2023-02-13T05:23:19.117Z,14.50
2023-02-13T05:25:45.701Z,14.97
2023-02-13T05:28:31.061Z,15.53
2023-02-13T05:30:58.134Z,14.37
2023-02-13T05:33:25.439Z,15.70
2023-02-13T05:35:52.040Z,22.37
2023-02-13T05:38:18.712Z,47.57
2023-02-13T05:40:45.336Z,19.17
2023-02-13T05:43:11.961Z,23.63
2023-02-13T05:45:38.600Z,17.60
2023-02-13T05:48:05.330Z,16.93
2023-02-13T05:50:31.954Z,16.70
2023-02-13T05:52:58.596Z,25.23
2023-02-13T05:55:25.273Z,18.07
2023-02-13T05:57:57.524Z,22.50
2023-02-13T06:00:25.372Z,23.27
2023-02-13T06:02:52.078Z,15.57
2023-02-13T06:05:18.728Z,23.57
2023-02-13T06:07:45.480Z,21.63
2023-02-13T06:10:12.231Z,19.50
2023-02-13T06:12:38.854Z,13.40
2023-02-13T06:15:06.937Z,12.47
2023-02-13T06:17:33.626Z,13.37
2023-02-13T06:20:00.226Z,14.67
2023-02-13T06:22:26.858Z,15.27
2023-02-13T06:24:53.474Z,21.67
2023-02-13T06:27:20.199Z,27.13
2023-02-13T06:29:46.855Z,16.03
2023-02-13T06:32:13.424Z,13.07
2023-02-13T06:34:40.115Z,11.50
2023-02-13T06:37:06.804Z,13.70
2023-02-13T06:39:33.422Z,12.80
2023-02-13T06:42:00.032Z,11.73
2023-02-13T06:44:26.605Z,10.63
2023-02-13T06:46:53.309Z,12.77
2023-02-13T06:49:19.898Z,15.30
2023-02-13T06:51:46.452Z,16.17
2023-02-13T06:54:13.094Z,13.67
2023-02-13T06:56:39.714Z,13.93
2023-02-13T06:59:06.503Z,15.37
2023-02-13T07:01:33.108Z,16.60
2023-02-13T07:03:59.639Z,31.70
2023-02-13T07:06:26.345Z,38.00
2023-02-13T07:08:55.656Z,41.70
2023-02-13T07:11:24.347Z,40.57
2023-02-13T07:13:51.226Z,39.00
2023-02-13T07:16:17.899Z,30.77
2023-02-13T07:18:44.620Z,22.87
2023-02-13T07:21:11.277Z,14.87
2023-02-13T07:23:37.972Z,21.77
2023-02-13T07:26:05.098Z,17.00
2023-02-13T07:28:32.155Z,15.60
2023-02-13T07:31:04.072Z,33.93
2023-02-13T07:33:30.699Z,27.83
2023-02-13T07:35:57.338Z,30.57
2023-02-13T07:38:23.941Z,41.17
2023-02-13T07:40:50.634Z,35.93
2023-02-13T07:43:17.548Z,43.17
2023-02-13T07:45:44.170Z,36.53
2023-02-13T07:48:10.841Z,35.73
2023-02-13T07:50:37.439Z,33.60
2023-02-13T07:53:04.086Z,31.07
2023-02-13T07:55:31.117Z,38.33
2023-02-13T07:57:57.748Z,28.60
2023-02-13T08:00:24.368Z,27.40
2023-02-13T08:02:50.966Z,24.53
2023-02-13T08:05:17.624Z,32.63
2023-02-13T08:07:44.208Z,17.13
2023-02-13T08:10:31.919Z,13.57
2023-02-13T08:12:58.779Z,13.03
2023-02-13T08:15:26.002Z,15.03
2023-02-13T08:17:52.666Z,21.63
2023-02-13T08:20:19.320Z,27.77
2023-02-13T08:22:45.858Z,40.33
2023-02-13T08:25:13.120Z,43.17
2023-02-13T08:27:39.710Z,38.10
2023-02-13T08:30:07.056Z,44.20
2023-02-13T08:32:44.887Z,40.20
2023-02-13T08:35:19.558Z,45.67
2023-02-13T08:37:47.616Z,42.77
2023-02-13T08:40:14.850Z,43.03
2023-02-13T08:42:41.640Z,41.70
2023-02-13T08:45:10.578Z,33.80
2023-02-13T08:47:38.158Z,35.33
2023-02-13T08:50:05.112Z,38.47
2023-02-13T08:52:31.835Z,35.43
2023-02-13T08:54:58.447Z,38.87
2023-02-13T08:57:25.071Z,39.23
2023-02-13T08:59:51.756Z,37.60
2023-02-13T09:02:18.456Z,38.80
2023-02-13T09:04:45.128Z,39.60
2023-02-13T09:07:12.567Z,29.67
2023-02-13T09:09:39.152Z,24.70
2023-02-13T09:12:05.921Z,30.20
2023-02-13T09:14:35.368Z,26.90
2023-02-13T09:17:03.198Z,25.13
2023-02-13T09:19:29.973Z,25.73
2023-02-13T09:21:56.626Z,26.73
2023-02-13T09:24:23.246Z,26.37
2023-02-13T09:26:49.839Z,20.67
2023-02-13T09:29:16.483Z,23.50
2023-02-13T09:31:43.454Z,22.30
2023-02-13T09:34:10.140Z,22.17
2023-02-13T09:36:36.803Z,22.70
2023-02-13T09:39:03.748Z,22.47
2023-02-13T09:41:38.145Z,21.13
2023-02-13T09:44:08.083Z,20.57
2023-02-13T09:46:37.029Z,23.30
2023-02-13T09:49:23.990Z,19.93
2023-02-13T09:51:54.648Z,19.90
2023-02-13T09:54:21.615Z,23.83
2023-02-13T09:57:01.654Z,22.43
2023-02-13T09:59:40.743Z,20.57
2023-02-13T10:02:25.507Z,23.27
2023-02-13T10:05:19.861Z,19.03
2023-02-13T10:07:51.145Z,22.13
2023-02-13T10:10:21.551Z,22.60
2023-02-13T10:13:23.681Z,21.77
2023-02-13T10:16:20.148Z,22.60
2023-02-13T10:18:51.179Z,19.77
2023-02-13T10:21:25.099Z,21.00
2023-02-13T10:23:58.680Z,24.83
2023-02-13T10:26:42.666Z,27.37
2023-02-13T10:29:32.851Z,22.43
2023-02-13T10:32:03.052Z,19.60
2023-02-13T10:34:34.426Z,21.83
2023-02-13T10:37:01.328Z,19.97
2023-02-13T10:39:30.334Z,21.83
2023-02-13T10:42:09.116Z,19.73
2023-02-13T10:44:54.391Z,16.77
2023-02-13T10:47:36.281Z,16.70
2023-02-13T10:50:15.016Z,17.63
2023-02-13T10:53:03.447Z,17.03
2023-02-13T10:55:58.093Z,20.13
2023-02-13T10:59:02.293Z,16.73
2023-02-13T11:01:38.656Z,16.47
2023-02-13T11:04:10.941Z,17.83
2023-02-13T11:06:42.526Z,20.87
2023-02-13T11:09:09.889Z,18.73
2023-02-13T11:11:38.613Z,18.93
2023-02-13T11:14:17.540Z,14.90
2023-02-13T11:16:58.913Z,18.73
2023-02-13T11:19:30.799Z,21.60
2023-02-13T11:22:35.910Z,20.73
2023-02-13T11:25:23.041Z,20.73
2023-02-13T11:27:51.547Z,20.73
2023-02-13T11:30:24.152Z,18.73
2023-02-13T11:33:29.112Z,17.97
2023-02-13T11:36:10.932Z,24.10
2023-02-13T11:38:37.584Z,21.60
2023-02-13T11:41:05.846Z,19.10
2023-02-13T11:43:37.518Z,20.63
2023-02-13T11:46:07.241Z,21.23
2023-02-13T11:48:34.263Z,21.40
2023-02-13T11:51:01.057Z,21.77
2023-02-13T11:53:41.076Z,21.27
2023-02-13T11:56:15.694Z,21.93
2023-02-13T11:58:42.856Z,22.50
2023-02-13T12:01:30.906Z,21.43
2023-02-13T12:04:03.716Z,19.90
2023-02-13T12:06:31.357Z,21.30
2023-02-13T12:08:58.198Z,22.27
2023-02-13T12:11:42.330Z,22.57
2023-02-13T12:14:16.978Z,21.57
2023-02-13T12:16:50.542Z,20.30
2023-02-13T12:19:21.460Z,21.33
2023-02-13T12:22:07.778Z,22.90
2023-02-13T12:25:22.099Z,20.13
2023-02-13T12:28:07.118Z,18.77
2023-02-13T12:30:42.912Z,22.40
2023-02-13T12:33:29.837Z,24.57
2023-02-13T12:36:02.587Z,24.20
2023-02-13T12:38:58.404Z,18.90
2023-02-13T12:41:54.799Z,24.83
2023-02-13T12:44:31.805Z,23.20
2023-02-13T12:47:07.785Z,22.23
2023-02-13T12:50:01.260Z,23.08
2023-02-13T12:52:47.204Z,21.77
2023-02-13T12:55:23.190Z,24.03
2023-02-13T12:58:28.953Z,22.70
2023-02-13T13:01:01.844Z,20.60
2023-02-13T13:03:35.093Z,24.90
2023-02-13T13:06:24.939Z,22.70
2023-02-13T13:09:36.252Z,23.17
2023-02-13T13:12:09.320Z,22.33
2023-02-13T13:15:04.541Z,21.70
2023-02-13T13:17:49.905Z,22.13
2023-02-13T13:20:49.207Z,19.67
2023-02-13T13:23:23.736Z,21.30
2023-02-13T13:26:09.736Z,19.53
2023-02-13T13:28:42.078Z,21.40
2023-02-13T13:31:09.416Z,22.00
2023-02-13T13:33:37.094Z,20.40
2023-02-13T13:36:34.293Z,21.97
2023-02-13T13:39:05.812Z,24.97
2023-02-13T13:41:47.392Z,20.77
2023-02-13T13:44:20.964Z,24.90
2023-02-13T13:46:47.561Z,17.53
2023-02-13T13:49:35.711Z,20.67
2023-02-13T13:52:28.252Z,23.87
2023-02-13T13:54:56.178Z,19.97
2023-02-13T13:57:25.831Z,20.27
2023-02-13T14:00:03.518Z,19.00
2023-02-13T14:02:59.294Z,19.87
2023-02-13T14:05:33.446Z,21.23
2023-02-13T14:08:08.987Z,20.67
2023-02-13T14:10:35.557Z,22.07
2023-02-13T14:13:03.190Z,21.53
2023-02-13T14:15:38.909Z,21.67
2023-02-13T14:18:14.468Z,22.70
2023-02-13T14:20:53.007Z,24.83
2023-02-13T14:23:37.949Z,21.13
2023-02-13T14:26:13.705Z,20.27
2023-02-13T14:28:42.047Z,19.83
2023-02-13T14:31:18.121Z,19.50
2023-02-13T14:33:44.883Z,22.00
2023-02-13T14:36:22.417Z,19.33
2023-02-13T14:38:57.558Z,17.63
2023-02-13T14:41:51.647Z,21.30
2023-02-13T14:44:43.658Z,22.23
2023-02-13T14:47:36.024Z,25.33
2023-02-13T14:50:05.014Z,23.67
2023-02-13T14:52:37.297Z,21.73
2023-02-13T14:55:07.621Z,22.00
2023-02-13T14:57:38.597Z,22.23
2023-02-13T15:00:14.852Z,38.00
2023-02-13T15:02:44.714Z,33.60
2023-02-13T15:05:20.068Z,30.50
2023-02-13T15:08:12.909Z,33.10
2023-02-13T15:10:49.626Z,33.03
2023-02-13T15:13:18.514Z,32.90
2023-02-13T15:15:49.356Z,28.73
2023-02-13T15:18:22.861Z,29.93
2023-02-13T15:20:49.962Z,39.80
2023-02-13T15:23:28.858Z,29.20
2023-02-13T15:26:01.455Z,29.80
2023-02-13T15:28:28.828Z,29.30
2023-02-13T15:30:57.515Z,33.33
2023-02-13T15:33:26.694Z,33.27
2023-02-13T15:36:19.405Z,43.60
2023-02-13T15:38:46.044Z,51.40
2023-02-13T15:41:17.685Z,41.90
2023-02-13T15:43:46.141Z,50.47
2023-02-13T15:46:26.240Z,48.87
2023-02-13T15:48:55.043Z,53.60
2023-02-13T15:51:23.491Z,69.73
2023-02-13T15:54:36.473Z,119.10
2023-02-13T15:57:06.544Z,39.23
2023-02-13T15:59:37.937Z,46.97
2023-02-13T16:02:09.750Z,46.90
2023-02-13T16:04:36.570Z,54.40
2023-02-13T16:07:03.370Z,57.47
2023-02-13T16:09:34.611Z,64.07
2023-02-13T16:12:17.360Z,72.07
2023-02-13T16:14:48.981Z,88.87
2023-02-13T16:17:27.914Z,84.03
2023-02-13T16:20:07.565Z,87.53
2023-02-13T16:22:37.852Z,101.53
2023-02-13T16:25:14.213Z,94.07
2023-02-13T16:27:58.089Z,139.10
2023-02-13T16:30:45.591Z,73.53
2023-02-13T16:33:15.297Z,96.37
2023-02-13T16:35:48.684Z,84.03
2023-02-13T16:38:30.550Z,123.97
2023-02-13T16:41:00.288Z,93.70
2023-02-13T16:43:48.086Z,83.83
2023-02-13T16:46:25.150Z,60.43
2023-02-13T16:48:58.081Z,91.93
2023-02-13T16:51:30.704Z,71.33
2023-02-13T16:54:05.733Z,68.23
2023-02-13T16:56:41.439Z,62.87
2023-02-13T16:59:21.107Z,47.80
2023-02-13T17:01:47.697Z,100.87
2023-02-13T17:04:21.559Z,123.87
2023-02-13T17:06:48.176Z,55.38
2023-02-13T17:09:14.776Z,47.93
2023-02-13T17:11:41.393Z,55.30
2023-02-13T17:14:07.998Z,52.07
2023-02-13T17:16:34.647Z,62.47
2023-02-13T17:19:01.320Z,79.77
2023-02-13T17:21:27.980Z,64.43
2023-02-13T17:23:54.625Z,63.30
2023-02-13T17:26:21.218Z,107.67
2023-02-13T17:28:47.849Z,55.47
2023-02-13T17:31:14.540Z,89.47
2023-02-13T17:33:41.955Z,57.23
2023-02-13T17:36:16.388Z,51.17
2023-02-13T17:38:43.011Z,73.60
2023-02-13T17:41:16.200Z,77.27
2023-02-13T17:43:42.961Z,63.50
2023-02-13T17:46:09.785Z,75.40
2023-02-13T17:48:36.499Z,75.83
2023-02-13T17:51:03.823Z,58.27
2023-02-13T17:53:30.701Z,50.73
2023-02-13T17:55:57.690Z,47.23
2023-02-13T17:58:24.360Z,51.57
2023-02-13T18:00:51.139Z,49.03
2023-02-13T18:03:17.810Z,69.53
2023-02-13T18:05:48.078Z,140.37
2023-02-13T18:08:14.978Z,81.43
2023-02-13T18:10:41.614Z,244.00
2023-02-13T18:13:08.422Z,253.07
2023-02-13T18:15:40.112Z,173.17
2023-02-13T18:18:07.278Z,201.23
2023-02-13T18:20:34.234Z,139.83
2023-02-13T18:23:01.084Z,105.43
2023-02-13T18:25:27.672Z,75.80
2023-02-13T18:27:55.421Z,57.70
2023-02-13T18:30:22.301Z,51.13
2023-02-13T18:32:53.921Z,56.00
2023-02-13T18:35:21.626Z,59.40
2023-02-13T18:37:48.391Z,49.50
2023-02-13T18:40:17.963Z,35.93
2023-02-13T18:42:45.025Z,34.33
2023-02-13T18:45:14.885Z,34.77
2023-02-13T18:47:41.604Z,30.13
2023-02-13T18:50:09.506Z,41.53
2023-02-13T18:52:36.489Z,31.13
2023-02-13T18:55:04.184Z,33.07
2023-02-13T18:57:30.931Z,30.70
2023-02-13T18:59:57.593Z,29.50
2023-02-13T19:02:24.418Z,34.33
2023-02-13T19:04:51.133Z,28.23
2023-02-13T19:07:17.880Z,29.63
2023-02-13T19:09:44.532Z,24.93
2023-02-13T19:12:11.234Z,28.80
2023-02-13T19:14:39.209Z,30.23
2023-02-13T19:17:08.237Z,24.20
2023-02-13T19:19:34.982Z,27.23
2023-02-13T19:22:01.691Z,27.60
2023-02-13T19:24:28.324Z,30.17
2023-02-13T19:26:54.917Z,24.13
2023-02-13T19:29:21.530Z,23.60
2023-02-13T19:31:48.218Z,23.50
2023-02-13T19:34:14.905Z,22.97
2023-02-13T19:36:41.475Z,22.93
2023-02-13T19:39:11.695Z,23.50
2023-02-13T19:41:40.725Z,23.43
2023-02-13T19:44:08.753Z,23.40
2023-02-13T19:46:35.918Z,24.00
2023-02-13T19:49:03.274Z,22.30
2023-02-13T19:51:32.262Z,25.03
2023-02-13T19:54:07.328Z,25.47
2023-02-13T19:56:37.273Z,29.50
2023-02-13T19:59:04.991Z,36.17
2023-02-13T20:01:31.758Z,31.47
2023-02-13T20:03:58.537Z,27.70
2023-02-13T20:06:32.102Z,28.90
2023-02-13T20:09:00.052Z,19.70
2023-02-13T20:11:26.685Z,26.83
2023-02-13T20:13:55.723Z,24.70
2023-02-13T20:16:23.281Z,25.40
2023-02-13T20:18:50.520Z,30.07
2023-02-13T20:21:17.889Z,28.27
2023-02-13T20:23:49.681Z,34.07
2023-02-13T20:26:16.812Z,27.97
2023-02-13T20:28:44.895Z,28.53
2023-02-13T20:31:22.059Z,33.13
2023-02-13T20:33:50.458Z,37.60
2023-02-13T20:36:23.154Z,36.33
2023-02-13T20:38:50.689Z,31.47
2023-02-13T20:41:20.160Z,42.07
2023-02-13T20:43:47.226Z,29.47
2023-02-13T20:46:16.255Z,32.07
2023-02-13T20:48:45.079Z,29.47
2023-02-13T20:51:13.475Z,25.93
2023-02-13T20:53:41.513Z,26.33
2023-02-13T20:56:10.817Z,21.40
2023-02-13T20:58:38.110Z,24.53
2023-02-13T21:01:11.941Z,26.03
2023-02-13T21:03:38.847Z,27.83
2023-02-13T21:06:06.382Z,29.37
2023-02-13T21:08:33.049Z,32.83
2023-02-13T21:11:04.501Z,32.03
2023-02-13T21:13:32.869Z,31.90
2023-02-13T21:16:06.888Z,48.23
2023-02-13T21:18:33.625Z,91.83
2023-02-13T21:21:00.701Z,64.97
2023-02-13T21:23:27.819Z,62.27
2023-02-13T21:25:54.504Z,57.27
2023-02-13T21:28:21.510Z,75.90
2023-02-13T21:30:48.193Z,65.97
2023-02-13T21:33:14.851Z,87.97
2023-02-13T21:35:41.426Z,43.77
2023-02-13T21:38:08.057Z,38.63
2023-02-13T21:40:34.703Z,27.87
2023-02-13T21:43:01.378Z,27.27
2023-02-13T21:45:28.027Z,25.30
2023-02-13T21:47:56.240Z,23.17
2023-02-13T21:50:23.339Z,23.27
2023-02-13T21:52:49.980Z,22.80
2023-02-13T21:55:16.971Z,25.33
2023-02-13T21:57:43.982Z,24.27
2023-02-13T22:00:11.209Z,23.37
2023-02-13T22:02:38.805Z,21.17
2023-02-13T22:05:05.829Z,24.23
2023-02-13T22:07:52.396Z,22.40
2023-02-13T22:10:18.963Z,21.87
2023-02-13T22:12:45.594Z,20.50
2023-02-13T22:15:12.182Z,21.50
2023-02-13T22:17:38.721Z,21.23
2023-02-13T22:20:06.008Z,20.97
2023-02-13T22:22:32.613Z,21.23
2023-02-13T22:24:59.228Z,19.40
2023-02-13T22:27:25.835Z,20.63
2023-02-13T22:29:52.455Z,18.73
2023-02-13T22:32:20.463Z,19.35
2023-02-13T22:34:47.223Z,22.77
2023-02-13T22:37:13.883Z,24.00
2023-02-13T22:39:40.484Z,24.93
2023-02-13T22:42:07.100Z,20.67
2023-02-13T22:44:33.707Z,19.47
2023-02-13T22:47:00.320Z,19.23
2023-02-13T22:49:27.007Z,22.20
2023-02-13T22:51:53.661Z,20.33
2023-02-13T22:54:20.290Z,18.37
2023-02-13T22:56:46.855Z,19.90
2023-02-13T22:59:13.497Z,17.47
2023-02-13T23:01:40.182Z,16.97
2023-02-13T23:04:06.852Z,18.40
2023-02-13T23:06:33.505Z,18.93
2023-02-13T23:09:00.148Z,19.60
2023-02-13T23:11:46.714Z,18.87
2023-02-13T23:14:14.106Z,17.23
2023-02-13T23:16:59.775Z,17.20
2023-02-13T23:19:27.580Z,18.50
2023-02-13T23:21:54.362Z,21.77
2023-02-13T23:24:21.552Z,21.77
2023-02-13T23:26:48.113Z,23.53
2023-02-13T23:29:14.750Z,23.20
2023-02-13T23:31:43.776Z,21.10
2023-02-13T23:34:10.512Z,22.70
2023-02-13T23:36:37.177Z,22.43
2023-02-13T23:39:03.961Z,24.53
2023-02-13T23:41:30.595Z,22.53
2023-02-13T23:43:57.246Z,26.00
2023-02-13T23:46:23.933Z,25.83
2023-02-13T23:48:50.732Z,25.90
2023-02-13T23:51:18.429Z,19.40
2023-02-13T23:53:45.013Z,23.40
2023-02-13T23:56:11.596Z,17.90
2023-02-13T23:58:38.191Z,20.33
